sensor_id;sensor_type;location;lat;lon;timestamp;pressure;altitude;pressure_sealevel;temperature;humidity
60240;BME280;46102;39.012;-7.064;2023-04-07T00:01:50;98233.28;;;16.39;31.71
60240;BME280;46102;39.012;-7.064;2023-04-07T00:03:50;98232.97;;;16.25;32.16
60240;BME280;46102;39.012;-7.064;2023-04-07T00:05:51;98237.66;;;16.05;32.36
60240;BME280;46102;39.012;-7.064;2023-04-07T00:07:51;98238.34;;;15.82;32.70
60240;BME280;46102;39.012;-7.064;2023-04-07T00:09:52;98238.13;;;15.72;32.91
60240;BME280;46102;39.012;-7.064;2023-04-07T00:11:52;98235.06;;;15.61;32.78
60240;BME280;46102;39.012;-7.064;2023-04-07T00:13:53;98229.53;;;15.45;32.80
60240;BME280;46102;39.012;-7.064;2023-04-07T00:15:54;98236.94;;;15.41;32.98
60240;BME280;46102;39.012;-7.064;2023-04-07T00:17:54;98238.28;;;15.31;32.92
60240;BME280;46102;39.012;-7.064;2023-04-07T00:19:55;98234.69;;;15.31;32.69
60240;BME280;46102;39.012;-7.064;2023-04-07T00:21:56;98230.50;;;15.37;32.27
60240;BME280;46102;39.012;-7.064;2023-04-07T00:23:56;98229.44;;;15.41;32.00
60240;BME280;46102;39.012;-7.064;2023-04-07T00:25:58;98224.06;;;15.49;31.73
60240;BME280;46102;39.012;-7.064;2023-04-07T00:27:58;98225.88;;;15.57;31.22
60240;BME280;46102;39.012;-7.064;2023-04-07T00:30:00;98228.00;;;15.64;30.91
60240;BME280;46102;39.012;-7.064;2023-04-07T00:32:00;98218.63;;;15.68;30.46
60240;BME280;46102;39.012;-7.064;2023-04-07T00:34:01;98215.50;;;15.70;30.48
60240;BME280;46102;39.012;-7.064;2023-04-07T00:36:01;98219.91;;;15.71;30.73
60240;BME280;46102;39.012;-7.064;2023-04-07T00:38:02;98212.75;;;15.70;31.09
60240;BME280;46102;39.012;-7.064;2023-04-07T00:40:03;98209.63;;;15.71;30.80
60240;BME280;46102;39.012;-7.064;2023-04-07T00:42:04;98216.78;;;15.72;30.59
60240;BME280;46102;39.012;-7.064;2023-04-07T00:44:06;98217.69;;;15.76;30.55
60240;BME280;46102;39.012;-7.064;2023-04-07T00:46:07;98215.25;;;15.75;30.36
60240;BME280;46102;39.012;-7.064;2023-04-07T00:48:08;98219.63;;;15.76;29.68
60240;BME280;46102;39.012;-7.064;2023-04-07T00:50:09;98226.94;;;15.84;29.16
60240;BME280;46102;39.012;-7.064;2023-04-07T00:52:10;98220.91;;;15.98;27.53
60240;BME280;46102;39.012;-7.064;2023-04-07T00:54:11;98216.38;;;16.25;26.38
60240;BME280;46102;39.012;-7.064;2023-04-07T00:56:12;98221.69;;;16.34;26.30
60240;BME280;46102;39.012;-7.064;2023-04-07T00:58:12;98226.56;;;16.40;26.35
60240;BME280;46102;39.012;-7.064;2023-04-07T01:00:16;98225.47;;;16.45;26.40
60240;BME280;46102;39.012;-7.064;2023-04-07T01:02:17;98220.47;;;16.51;26.17
60240;BME280;46102;39.012;-7.064;2023-04-07T01:06:23;98220.75;;;16.65;25.75
60240;BME280;46102;39.012;-7.064;2023-04-07T01:08:31;98219.56;;;16.66;25.85
60240;BME280;46102;39.012;-7.064;2023-04-07T01:10:40;98223.94;;;16.67;25.91
60240;BME280;46102;39.012;-7.064;2023-04-07T01:14:57;98224.97;;;16.59;26.04
60240;BME280;46102;39.012;-7.064;2023-04-07T01:17:09;98217.84;;;16.58;26.36
60240;BME280;46102;39.012;-7.064;2023-04-07T01:19:15;98219.81;;;16.57;26.40
60240;BME280;46102;39.012;-7.064;2023-04-07T01:21:29;98215.94;;;16.62;26.35
60240;BME280;46102;39.012;-7.064;2023-04-07T01:25:59;98216.75;;;16.62;26.34
60240;BME280;46102;39.012;-7.064;2023-04-07T01:30:04;98218.28;;;16.60;26.74
60240;BME280;46102;39.012;-7.064;2023-04-07T01:32:08;98210.69;;;16.57;26.59
60240;BME280;46102;39.012;-7.064;2023-04-07T01:34:09;98207.91;;;16.57;26.65
60240;BME280;46102;39.012;-7.064;2023-04-07T01:36:11;98216.22;;;16.57;26.75
60240;BME280;46102;39.012;-7.064;2023-04-07T01:38:12;98205.97;;;16.57;26.90
60240;BME280;46102;39.012;-7.064;2023-04-07T01:40:13;98204.34;;;16.56;26.86
60240;BME280;46102;39.012;-7.064;2023-04-07T01:42:15;98208.31;;;16.55;26.98
60240;BME280;46102;39.012;-7.064;2023-04-07T01:44:16;98203.47;;;16.52;26.98
60240;BME280;46102;39.012;-7.064;2023-04-07T01:46:17;98205.81;;;16.50;27.05
60240;BME280;46102;39.012;-7.064;2023-04-07T01:48:17;98208.13;;;16.48;27.02
60240;BME280;46102;39.012;-7.064;2023-04-07T01:50:18;98198.09;;;16.40;27.10
60240;BME280;46102;39.012;-7.064;2023-04-07T01:52:20;98207.94;;;16.37;27.41
60240;BME280;46102;39.012;-7.064;2023-04-07T01:54:21;98204.59;;;16.28;27.57
60240;BME280;46102;39.012;-7.064;2023-04-07T01:56:23;98210.78;;;16.21;28.05
60240;BME280;46102;39.012;-7.064;2023-04-07T01:58:26;98211.41;;;16.15;28.32
60240;BME280;46102;39.012;-7.064;2023-04-07T02:00:27;98203.38;;;16.10;28.68
60240;BME280;46102;39.012;-7.064;2023-04-07T02:02:27;98212.31;;;16.03;28.99
60240;BME280;46102;39.012;-7.064;2023-04-07T02:04:34;98214.94;;;15.96;29.06
60240;BME280;46102;39.012;-7.064;2023-04-07T02:06:41;98209.25;;;15.89;29.21
60240;BME280;46102;39.012;-7.064;2023-04-07T02:08:45;98210.69;;;15.82;29.40
60240;BME280;46102;39.012;-7.064;2023-04-07T02:10:47;98214.53;;;15.78;29.76
60240;BME280;46102;39.012;-7.064;2023-04-07T02:12:49;98207.69;;;15.72;30.02
60240;BME280;46102;39.012;-7.064;2023-04-07T02:14:53;98214.03;;;15.72;30.13
60240;BME280;46102;39.012;-7.064;2023-04-07T02:16:54;98212.31;;;15.68;30.24
60240;BME280;46102;39.012;-7.064;2023-04-07T02:18:55;98215.69;;;15.61;30.58
60240;BME280;46102;39.012;-7.064;2023-04-07T02:20:57;98214.81;;;15.57;30.55
60240;BME280;46102;39.012;-7.064;2023-04-07T02:22:59;98213.13;;;15.52;30.50
60240;BME280;46102;39.012;-7.064;2023-04-07T02:25:00;98206.41;;;15.53;30.77
60240;BME280;46102;39.012;-7.064;2023-04-07T02:27:00;98215.16;;;15.55;30.90
60240;BME280;46102;39.012;-7.064;2023-04-07T02:29:04;98205.56;;;15.49;31.32
60240;BME280;46102;39.012;-7.064;2023-04-07T02:31:05;98203.41;;;15.43;31.33
60240;BME280;46102;39.012;-7.064;2023-04-07T02:33:06;98206.09;;;15.39;31.37
60240;BME280;46102;39.012;-7.064;2023-04-07T02:35:06;98209.13;;;15.34;31.51
60240;BME280;46102;39.012;-7.064;2023-04-07T02:37:08;98209.38;;;15.29;31.42
60240;BME280;46102;39.012;-7.064;2023-04-07T02:39:09;98204.66;;;15.29;31.37
60240;BME280;46102;39.012;-7.064;2023-04-07T02:41:10;98195.94;;;15.27;31.64
60240;BME280;46102;39.012;-7.064;2023-04-07T02:43:10;98210.03;;;15.22;31.78
60240;BME280;46102;39.012;-7.064;2023-04-07T02:45:11;98205.97;;;15.19;31.74
60240;BME280;46102;39.012;-7.064;2023-04-07T02:47:12;98204.28;;;15.15;31.91
60240;BME280;46102;39.012;-7.064;2023-04-07T02:49:13;98207.06;;;15.15;31.97
60240;BME280;46102;39.012;-7.064;2023-04-07T02:51:14;98207.88;;;15.15;32.15
60240;BME280;46102;39.012;-7.064;2023-04-07T02:53:14;98208.22;;;15.14;32.25
60240;BME280;46102;39.012;-7.064;2023-04-07T02:55:15;98205.34;;;15.10;32.29
60240;BME280;46102;39.012;-7.064;2023-04-07T02:57:17;98201.28;;;15.04;32.42
60240;BME280;46102;39.012;-7.064;2023-04-07T02:59:18;98198.13;;;15.06;32.50
60240;BME280;46102;39.012;-7.064;2023-04-07T03:01:19;98205.19;;;15.03;32.65
60240;BME280;46102;39.012;-7.064;2023-04-07T03:03:20;98197.16;;;14.98;32.64
60240;BME280;46102;39.012;-7.064;2023-04-07T03:05:33;98196.59;;;14.92;32.77
60240;BME280;46102;39.012;-7.064;2023-04-07T03:07:35;98197.66;;;14.88;33.04
60240;BME280;46102;39.012;-7.064;2023-04-07T03:09:37;98196.78;;;14.84;33.00
60240;BME280;46102;39.012;-7.064;2023-04-07T03:11:38;98195.19;;;14.83;33.02
60240;BME280;46102;39.012;-7.064;2023-04-07T03:13:39;98189.75;;;14.86;33.26
60240;BME280;46102;39.012;-7.064;2023-04-07T03:15:40;98194.91;;;14.88;33.63
60240;BME280;46102;39.012;-7.064;2023-04-07T03:17:40;98194.66;;;14.93;34.07
60240;BME280;46102;39.012;-7.064;2023-04-07T03:19:41;98191.81;;;14.89;34.18
60240;BME280;46102;39.012;-7.064;2023-04-07T03:21:43;98195.75;;;14.88;34.01
60240;BME280;46102;39.012;-7.064;2023-04-07T03:23:44;98196.88;;;14.87;34.31
60240;BME280;46102;39.012;-7.064;2023-04-07T03:25:45;98196.44;;;14.85;34.47
60240;BME280;46102;39.012;-7.064;2023-04-07T03:27:46;98196.53;;;14.89;34.96
60240;BME280;46102;39.012;-7.064;2023-04-07T03:29:48;98194.38;;;14.82;34.83
60240;BME280;46102;39.012;-7.064;2023-04-07T03:31:51;98195.00;;;14.75;35.10
60240;BME280;46102;39.012;-7.064;2023-04-07T03:33:55;98198.69;;;14.67;34.78
60240;BME280;46102;39.012;-7.064;2023-04-07T03:35:56;98194.38;;;14.54;35.16
60240;BME280;46102;39.012;-7.064;2023-04-07T03:37:58;98198.09;;;14.46;35.35
60240;BME280;46102;39.012;-7.064;2023-04-07T03:39:59;98202.25;;;14.40;35.29
60240;BME280;46102;39.012;-7.064;2023-04-07T03:42:05;98195.38;;;14.33;35.18
60240;BME280;46102;39.012;-7.064;2023-04-07T03:44:07;98195.97;;;14.27;35.13
60240;BME280;46102;39.012;-7.064;2023-04-07T03:46:10;98193.34;;;14.18;35.49
60240;BME280;46102;39.012;-7.064;2023-04-07T03:48:11;98194.84;;;14.15;35.70
60240;BME280;46102;39.012;-7.064;2023-04-07T03:50:20;98193.94;;;14.11;35.83
60240;BME280;46102;39.012;-7.064;2023-04-07T03:52:32;98193.84;;;14.08;36.82
60240;BME280;46102;39.012;-7.064;2023-04-07T03:54:40;98199.38;;;14.08;36.95
60240;BME280;46102;39.012;-7.064;2023-04-07T03:56:41;98195.44;;;14.09;37.35
60240;BME280;46102;39.012;-7.064;2023-04-07T03:58:42;98192.22;;;14.07;37.28
60240;BME280;46102;39.012;-7.064;2023-04-07T04:00:48;98206.41;;;14.05;37.82
60240;BME280;46102;39.012;-7.064;2023-04-07T04:02:51;98202.72;;;14.01;38.89
60240;BME280;46102;39.012;-7.064;2023-04-07T04:04:53;98198.78;;;14.02;38.95
60240;BME280;46102;39.012;-7.064;2023-04-07T04:06:56;98198.34;;;14.00;39.27
60240;BME280;46102;39.012;-7.064;2023-04-07T04:09:08;98200.50;;;14.07;40.26
60240;BME280;46102;39.012;-7.064;2023-04-07T04:11:13;98203.38;;;14.10;40.61
60240;BME280;46102;39.012;-7.064;2023-04-07T04:13:21;98196.69;;;14.11;40.68
60240;BME280;46102;39.012;-7.064;2023-04-07T04:15:23;98197.19;;;14.01;40.47
60240;BME280;46102;39.012;-7.064;2023-04-07T04:17:24;98209.50;;;13.91;40.75
60240;BME280;46102;39.012;-7.064;2023-04-07T04:19:26;98200.78;;;13.89;40.70
60240;BME280;46102;39.012;-7.064;2023-04-07T04:21:29;98198.72;;;13.86;41.07
60240;BME280;46102;39.012;-7.064;2023-04-07T04:23:30;98198.38;;;13.88;41.49
60240;BME280;46102;39.012;-7.064;2023-04-07T04:25:32;98193.78;;;13.80;41.64
60240;BME280;46102;39.012;-7.064;2023-04-07T04:27:36;98199.88;;;13.73;42.02
60240;BME280;46102;39.012;-7.064;2023-04-07T04:29:47;98201.50;;;13.62;42.00
60240;BME280;46102;39.012;-7.064;2023-04-07T04:31:51;98203.56;;;13.52;42.29
60240;BME280;46102;39.012;-7.064;2023-04-07T04:33:53;98205.53;;;13.52;42.58
60240;BME280;46102;39.012;-7.064;2023-04-07T04:35:54;98207.81;;;13.50;42.67
60240;BME280;46102;39.012;-7.064;2023-04-07T04:37:55;98208.41;;;13.43;43.29
60240;BME280;46102;39.012;-7.064;2023-04-07T04:39:56;98204.06;;;13.42;43.26
60240;BME280;46102;39.012;-7.064;2023-04-07T04:41:58;98202.31;;;13.38;43.31
60240;BME280;46102;39.012;-7.064;2023-04-07T04:44:05;98206.44;;;13.31;43.99
60240;BME280;46102;39.012;-7.064;2023-04-07T04:46:06;98205.03;;;13.25;43.92
60240;BME280;46102;39.012;-7.064;2023-04-07T04:48:12;98208.59;;;13.26;43.91
60240;BME280;46102;39.012;-7.064;2023-04-07T04:50:12;98205.81;;;13.26;44.25
60240;BME280;46102;39.012;-7.064;2023-04-07T04:52:15;98210.53;;;13.25;43.94
60240;BME280;46102;39.012;-7.064;2023-04-07T04:54:20;98209.06;;;13.28;44.17
60240;BME280;46102;39.012;-7.064;2023-04-07T04:56:21;98210.00;;;13.32;44.00
60240;BME280;46102;39.012;-7.064;2023-04-07T04:58:23;98211.25;;;13.35;44.17
60240;BME280;46102;39.012;-7.064;2023-04-07T05:00:26;98214.81;;;13.35;44.65
60240;BME280;46102;39.012;-7.064;2023-04-07T05:02:33;98212.19;;;13.39;45.02
60240;BME280;46102;39.012;-7.064;2023-04-07T05:04:37;98211.50;;;13.29;44.88
60240;BME280;46102;39.012;-7.064;2023-04-07T05:06:57;98218.59;;;13.30;44.70
60240;BME280;46102;39.012;-7.064;2023-04-07T05:09:01;98218.16;;;13.28;45.35
60240;BME280;46102;39.012;-7.064;2023-04-07T05:11:10;98216.50;;;13.27;44.97
60240;BME280;46102;39.012;-7.064;2023-04-07T05:13:12;98223.19;;;13.26;45.35
60240;BME280;46102;39.012;-7.064;2023-04-07T05:15:13;98221.19;;;13.15;45.52
60240;BME280;46102;39.012;-7.064;2023-04-07T05:17:17;98225.09;;;13.13;46.16
60240;BME280;46102;39.012;-7.064;2023-04-07T05:19:17;98228.09;;;13.08;45.95
60240;BME280;46102;39.012;-7.064;2023-04-07T05:21:19;98224.41;;;13.17;46.37
60240;BME280;46102;39.012;-7.064;2023-04-07T05:23:22;98222.81;;;13.16;46.30
60240;BME280;46102;39.012;-7.064;2023-04-07T05:25:25;98218.09;;;13.16;46.47
60240;BME280;46102;39.012;-7.064;2023-04-07T05:27:30;98225.66;;;13.19;46.91
60240;BME280;46102;39.012;-7.064;2023-04-07T05:29:36;98221.66;;;13.17;47.01
60240;BME280;46102;39.012;-7.064;2023-04-07T05:31:38;98229.25;;;13.20;47.23
60240;BME280;46102;39.012;-7.064;2023-04-07T05:33:44;98230.53;;;13.22;47.03
60240;BME280;46102;39.012;-7.064;2023-04-07T05:35:44;98233.59;;;13.21;47.18
60240;BME280;46102;39.012;-7.064;2023-04-07T05:37:45;98229.00;;;13.12;47.20
60240;BME280;46102;39.012;-7.064;2023-04-07T05:39:46;98232.78;;;13.08;46.99
60240;BME280;46102;39.012;-7.064;2023-04-07T05:41:48;98235.53;;;13.08;47.29
60240;BME280;46102;39.012;-7.064;2023-04-07T05:43:49;98238.97;;;13.05;47.23
60240;BME280;46102;39.012;-7.064;2023-04-07T05:45:51;98237.72;;;13.02;47.71
60240;BME280;46102;39.012;-7.064;2023-04-07T05:47:52;98237.25;;;13.00;47.30
60240;BME280;46102;39.012;-7.064;2023-04-07T05:50:00;98235.50;;;12.96;48.67
60240;BME280;46102;39.012;-7.064;2023-04-07T05:52:00;98236.44;;;13.00;48.30
60240;BME280;46102;39.012;-7.064;2023-04-07T05:54:03;98242.75;;;13.00;49.36
60240;BME280;46102;39.012;-7.064;2023-04-07T05:56:05;98238.97;;;13.05;49.83
60240;BME280;46102;39.012;-7.064;2023-04-07T05:58:18;98235.06;;;13.06;49.71
60240;BME280;46102;39.012;-7.064;2023-04-07T06:00:23;98240.22;;;13.07;49.73
60240;BME280;46102;39.012;-7.064;2023-04-07T06:02:34;98236.53;;;13.03;49.65
60240;BME280;46102;39.012;-7.064;2023-04-07T06:04:35;98246.28;;;13.01;49.70
60240;BME280;46102;39.012;-7.064;2023-04-07T06:06:38;98244.56;;;12.96;49.36
60240;BME280;46102;39.012;-7.064;2023-04-07T06:08:39;98245.13;;;12.89;49.82
60240;BME280;46102;39.012;-7.064;2023-04-07T06:10:39;98245.00;;;12.86;49.70
60240;BME280;46102;39.012;-7.064;2023-04-07T06:12:43;98245.56;;;12.79;50.07
60240;BME280;46102;39.012;-7.064;2023-04-07T06:14:45;98247.38;;;12.75;49.90
60240;BME280;46102;39.012;-7.064;2023-04-07T06:16:46;98250.34;;;12.70;50.05
60240;BME280;46102;39.012;-7.064;2023-04-07T06:18:47;98249.06;;;12.67;49.85
60240;BME280;46102;39.012;-7.064;2023-04-07T06:20:47;98256.25;;;12.60;50.34
60240;BME280;46102;39.012;-7.064;2023-04-07T06:22:48;98255.09;;;12.61;50.05
60240;BME280;46102;39.012;-7.064;2023-04-07T06:24:49;98254.38;;;12.52;50.58
60240;BME280;46102;39.012;-7.064;2023-04-07T06:26:50;98261.25;;;12.45;50.68
60240;BME280;46102;39.012;-7.064;2023-04-07T06:28:51;98274.44;;;12.31;51.09
60240;BME280;46102;39.012;-7.064;2023-04-07T06:30:52;98272.06;;;12.29;51.19
60240;BME280;46102;39.012;-7.064;2023-04-07T06:32:53;98266.56;;;12.29;50.95
60240;BME280;46102;39.012;-7.064;2023-04-07T06:34:54;98274.13;;;12.33;51.17
60240;BME280;46102;39.012;-7.064;2023-04-07T06:36:55;98280.31;;;12.29;50.94
60240;BME280;46102;39.012;-7.064;2023-04-07T06:38:56;98282.69;;;12.31;51.11
60240;BME280;46102;39.012;-7.064;2023-04-07T06:40:56;98282.06;;;12.34;50.87
60240;BME280;46102;39.012;-7.064;2023-04-07T06:42:57;98282.84;;;12.35;51.08
60240;BME280;46102;39.012;-7.064;2023-04-07T06:45:05;98287.41;;;12.31;50.73
60240;BME280;46102;39.012;-7.064;2023-04-07T06:47:05;98286.94;;;12.28;50.80
60240;BME280;46102;39.012;-7.064;2023-04-07T06:49:06;98286.19;;;12.19;50.04
60240;BME280;46102;39.012;-7.064;2023-04-07T06:51:07;98292.38;;;12.16;50.03
60240;BME280;46102;39.012;-7.064;2023-04-07T06:53:07;98284.13;;;12.16;49.10
60240;BME280;46102;39.012;-7.064;2023-04-07T06:55:08;98300.16;;;12.14;48.57
60240;BME280;46102;39.012;-7.064;2023-04-07T06:57:09;98300.16;;;12.14;47.85
60240;BME280;46102;39.012;-7.064;2023-04-07T06:59:11;98299.34;;;12.14;47.67
60240;BME280;46102;39.012;-7.064;2023-04-07T07:01:12;98311.56;;;12.25;46.93
60240;BME280;46102;39.012;-7.064;2023-04-07T07:03:12;98309.41;;;12.31;46.53
60240;BME280;46102;39.012;-7.064;2023-04-07T07:05:13;98314.53;;;12.41;45.48
60240;BME280;46102;39.012;-7.064;2023-04-07T07:07:13;98316.66;;;12.56;45.21
60240;BME280;46102;39.012;-7.064;2023-04-07T07:09:14;98316.72;;;12.68;44.93
60240;BME280;46102;39.012;-7.064;2023-04-07T07:11:15;98318.66;;;12.89;44.24
60240;BME280;46102;39.012;-7.064;2023-04-07T07:13:16;98318.97;;;13.08;43.55
60240;BME280;46102;39.012;-7.064;2023-04-07T07:15:17;98325.72;;;13.32;42.83
60240;BME280;46102;39.012;-7.064;2023-04-07T07:17:18;98327.69;;;13.44;42.27
60240;BME280;46102;39.012;-7.064;2023-04-07T07:19:18;98327.47;;;13.61;42.17
60240;BME280;46102;39.012;-7.064;2023-04-07T07:21:19;98323.81;;;13.69;41.79
60240;BME280;46102;39.012;-7.064;2023-04-07T07:23:19;98331.06;;;13.74;41.97
60240;BME280;46102;39.012;-7.064;2023-04-07T07:25:20;98333.03;;;13.86;41.94
60240;BME280;46102;39.012;-7.064;2023-04-07T07:27:21;98336.59;;;13.99;42.07
60240;BME280;46102;39.012;-7.064;2023-04-07T07:29:21;98331.66;;;14.16;41.59
60240;BME280;46102;39.012;-7.064;2023-04-07T07:31:22;98326.91;;;14.29;41.78
60240;BME280;46102;39.012;-7.064;2023-04-07T07:33:23;98331.75;;;14.32;42.85
60240;BME280;46102;39.012;-7.064;2023-04-07T07:35:24;98330.78;;;14.41;42.72
60240;BME280;46102;39.012;-7.064;2023-04-07T07:37:24;98330.56;;;14.58;42.75
60240;BME280;46102;39.012;-7.064;2023-04-07T07:39:25;98330.16;;;14.72;42.34
60240;BME280;46102;39.012;-7.064;2023-04-07T07:41:26;98334.31;;;14.78;42.59
60240;BME280;46102;39.012;-7.064;2023-04-07T07:43:26;98329.56;;;14.78;43.09
60240;BME280;46102;39.012;-7.064;2023-04-07T07:45:27;98343.38;;;14.78;42.84
60240;BME280;46102;39.012;-7.064;2023-04-07T07:47:28;98340.22;;;14.92;42.60
60240;BME280;46102;39.012;-7.064;2023-04-07T07:49:28;98343.50;;;15.10;42.22
60240;BME280;46102;39.012;-7.064;2023-04-07T07:51:29;98344.44;;;15.30;41.76
60240;BME280;46102;39.012;-7.064;2023-04-07T07:53:30;98347.22;;;15.46;41.28
60240;BME280;46102;39.012;-7.064;2023-04-07T07:55:31;98340.63;;;15.51;40.84
60240;BME280;46102;39.012;-7.064;2023-04-07T07:57:31;98340.00;;;15.57;40.85
60240;BME280;46102;39.012;-7.064;2023-04-07T07:59:32;98346.91;;;15.64;40.82
60240;BME280;46102;39.012;-7.064;2023-04-07T08:01:32;98350.88;;;15.78;40.51
60240;BME280;46102;39.012;-7.064;2023-04-07T08:03:33;98353.00;;;16.01;40.07
60240;BME280;46102;39.012;-7.064;2023-04-07T08:05:33;98352.13;;;16.32;39.36
60240;BME280;46102;39.012;-7.064;2023-04-07T08:07:34;98358.63;;;16.56;38.29
60240;BME280;46102;39.012;-7.064;2023-04-07T08:09:35;98361.16;;;16.80;38.09
60240;BME280;46102;39.012;-7.064;2023-04-07T08:11:36;98367.19;;;16.86;37.26
60240;BME280;46102;39.012;-7.064;2023-04-07T08:13:36;98365.91;;;16.99;37.32
60240;BME280;46102;39.012;-7.064;2023-04-07T08:15:38;98357.91;;;17.14;36.93
60240;BME280;46102;39.012;-7.064;2023-04-07T08:17:39;98359.25;;;17.23;36.40
60240;BME280;46102;39.012;-7.064;2023-04-07T08:19:39;98364.72;;;17.39;36.25
60240;BME280;46102;39.012;-7.064;2023-04-07T08:21:40;98359.19;;;17.62;36.00
60240;BME280;46102;39.012;-7.064;2023-04-07T08:23:40;98351.28;;;17.84;35.66
60240;BME280;46102;39.012;-7.064;2023-04-07T08:25:41;98356.88;;;18.10;34.99
60240;BME280;46102;39.012;-7.064;2023-04-07T08:27:41;98356.09;;;18.37;33.31
60240;BME280;46102;39.012;-7.064;2023-04-07T08:29:42;98359.22;;;18.62;32.42
60240;BME280;46102;39.012;-7.064;2023-04-07T08:31:43;98355.50;;;18.77;31.10
60240;BME280;46102;39.012;-7.064;2023-04-07T08:33:43;98353.16;;;18.79;30.11
60240;BME280;46102;39.012;-7.064;2023-04-07T08:35:44;98353.00;;;18.99;30.07
60240;BME280;46102;39.012;-7.064;2023-04-07T08:37:45;98359.41;;;19.03;28.56
60240;BME280;46102;39.012;-7.064;2023-04-07T08:39:46;98361.47;;;19.09;28.74
60240;BME280;46102;39.012;-7.064;2023-04-07T08:41:47;98346.59;;;19.28;28.73
60240;BME280;46102;39.012;-7.064;2023-04-07T08:43:48;98344.09;;;19.53;28.09
60240;BME280;46102;39.012;-7.064;2023-04-07T08:45:49;98348.19;;;19.67;27.66
60240;BME280;46102;39.012;-7.064;2023-04-07T08:47:52;98344.41;;;19.86;27.42
60240;BME280;46102;39.012;-7.064;2023-04-07T08:49:56;98345.78;;;20.06;26.77
60240;BME280;46102;39.012;-7.064;2023-04-07T08:52:00;98347.09;;;20.23;25.83
60240;BME280;46102;39.012;-7.064;2023-04-07T08:54:05;98350.75;;;20.34;25.46
60240;BME280;46102;39.012;-7.064;2023-04-07T08:56:11;98352.88;;;20.55;25.29
60240;BME280;46102;39.012;-7.064;2023-04-07T08:58:12;98347.84;;;20.75;25.07
60240;BME280;46102;39.012;-7.064;2023-04-07T09:00:13;98349.50;;;20.84;24.78
60240;BME280;46102;39.012;-7.064;2023-04-07T09:02:14;98351.16;;;20.99;25.11
60240;BME280;46102;39.012;-7.064;2023-04-07T09:04:15;98350.31;;;20.91;24.65
60240;BME280;46102;39.012;-7.064;2023-04-07T09:06:16;98354.78;;;21.03;23.95
60240;BME280;46102;39.012;-7.064;2023-04-07T09:08:17;98352.00;;;21.10;23.36
60240;BME280;46102;39.012;-7.064;2023-04-07T09:10:17;98350.03;;;21.18;22.86
60240;BME280;46102;39.012;-7.064;2023-04-07T09:12:18;98348.13;;;21.40;23.04
60240;BME280;46102;39.012;-7.064;2023-04-07T09:14:19;98351.00;;;21.58;22.92
60240;BME280;46102;39.012;-7.064;2023-04-07T09:16:21;98351.41;;;21.85;22.33
60240;BME280;46102;39.012;-7.064;2023-04-07T09:18:22;98351.81;;;21.83;22.91
60240;BME280;46102;39.012;-7.064;2023-04-07T09:20:23;98363.41;;;21.82;22.98
60240;BME280;46102;39.012;-7.064;2023-04-07T09:22:43;98361.41;;;21.97;23.14
60240;BME280;46102;39.012;-7.064;2023-04-07T09:24:47;98360.63;;;22.21;22.80
60240;BME280;46102;39.012;-7.064;2023-04-07T09:26:48;98359.44;;;22.22;22.43
60240;BME280;46102;39.012;-7.064;2023-04-07T09:28:51;98356.25;;;22.38;22.33
60240;BME280;46102;39.012;-7.064;2023-04-07T09:30:52;98356.66;;;22.40;21.78
60240;BME280;46102;39.012;-7.064;2023-04-07T09:32:53;98363.00;;;22.59;21.74
60240;BME280;46102;39.012;-7.064;2023-04-07T09:34:57;98358.16;;;22.74;21.60
60240;BME280;46102;39.012;-7.064;2023-04-07T09:36:58;98355.34;;;22.88;22.07
60240;BME280;46102;39.012;-7.064;2023-04-07T09:38:58;98354.88;;;23.15;22.20
60240;BME280;46102;39.012;-7.064;2023-04-07T09:41:10;98351.94;;;23.36;21.86
60240;BME280;46102;39.012;-7.064;2023-04-07T09:43:16;98350.66;;;23.52;21.72
60240;BME280;46102;39.012;-7.064;2023-04-07T09:45:24;98348.56;;;23.70;21.55
60240;BME280;46102;39.012;-7.064;2023-04-07T09:47:26;98342.84;;;23.92;20.90
60240;BME280;46102;39.012;-7.064;2023-04-07T09:49:28;98345.91;;;24.04;20.94
60240;BME280;46102;39.012;-7.064;2023-04-07T09:51:29;98344.72;;;24.05;20.53
60240;BME280;46102;39.012;-7.064;2023-04-07T09:53:46;98350.41;;;23.95;20.31
60240;BME280;46102;39.012;-7.064;2023-04-07T09:55:47;98346.75;;;24.01;19.95
60240;BME280;46102;39.012;-7.064;2023-04-07T09:57:49;98350.66;;;24.11;20.24
60240;BME280;46102;39.012;-7.064;2023-04-07T09:59:50;98342.50;;;24.31;20.45
60240;BME280;46102;39.012;-7.064;2023-04-07T10:01:51;98351.53;;;24.53;20.07
60240;BME280;46102;39.012;-7.064;2023-04-07T10:03:51;98348.94;;;24.69;20.13
60240;BME280;46102;39.012;-7.064;2023-04-07T10:05:52;98351.19;;;24.85;19.92
60240;BME280;46102;39.012;-7.064;2023-04-07T10:07:53;98350.31;;;24.92;19.81
60240;BME280;46102;39.012;-7.064;2023-04-07T10:09:54;98350.59;;;25.01;19.42
60240;BME280;46102;39.012;-7.064;2023-04-07T10:11:57;98348.50;;;24.75;19.47
60240;BME280;46102;39.012;-7.064;2023-04-07T10:13:58;98346.03;;;24.80;19.50
60240;BME280;46102;39.012;-7.064;2023-04-07T10:16:00;98346.53;;;24.71;19.32
60240;BME280;46102;39.012;-7.064;2023-04-07T10:18:02;98344.56;;;24.68;19.41
60240;BME280;46102;39.012;-7.064;2023-04-07T10:20:05;98342.97;;;24.67;19.39
60240;BME280;46102;39.012;-7.064;2023-04-07T10:22:07;98346.06;;;24.77;19.41
60240;BME280;46102;39.012;-7.064;2023-04-07T10:24:12;98342.63;;;25.00;18.86
60240;BME280;46102;39.012;-7.064;2023-04-07T10:26:20;98347.50;;;25.26;18.85
60240;BME280;46102;39.012;-7.064;2023-04-07T10:28:23;98346.34;;;25.54;18.85
60240;BME280;46102;39.012;-7.064;2023-04-07T10:30:25;98346.03;;;25.76;18.44
60240;BME280;46102;39.012;-7.064;2023-04-07T10:32:26;98350.41;;;25.77;18.48
60240;BME280;46102;39.012;-7.064;2023-04-07T10:43:38;98337.16;;;26.05;18.02
60240;BME280;46102;39.012;-7.064;2023-04-07T10:52:22;98330.16;;;27.04;17.88
60240;BME280;46102;39.012;-7.064;2023-04-07T10:54:23;98330.34;;;26.93;17.84
60240;BME280;46102;39.012;-7.064;2023-04-07T10:56:26;98331.41;;;26.59;18.11
60240;BME280;46102;39.012;-7.064;2023-04-07T10:58:47;98326.31;;;26.74;18.37
60240;BME280;46102;39.012;-7.064;2023-04-07T11:03:09;98328.22;;;27.20;17.63
60240;BME280;46102;39.012;-7.064;2023-04-07T11:05:18;98319.25;;;27.26;17.42
60240;BME280;46102;39.012;-7.064;2023-04-07T11:07:20;98316.78;;;27.48;17.48